Terminal Aerodrome Forecast
Issued by NWS

Home | Current Version | Previous Version | Text Only | Print | Product List | Glossary On
Versions: 1 2 3 4 5 6 7 8 9 10 11 12 13
777
FTUS44 KLZK 202340
TAFLIT
TAF
KLIT 202340Z 2100/2124 15004KT P6SM SCT100 BKN250
     FM210600 13004KT P6SM SCT060 BKN100
     FM211300 13008KT P6SM BKN025 BKN050
     FM211600 17009G16KT P6SM SCT035 BKN060=

USA.gov is the U.S. government's official web portal to all federal, state and local government web resources and services.